»·PEaware :: N22G KBOI-KLAS

N22G :: KBOI-KLAS

FLIGHT INFORMATION

Flight Status: Arrived
Operator: Privately registered:
United States
More flights under this callsign
Pilot: Ryan L. (28399)
Aircraft: CESSNA 510 CITATION MUSTANG
(C510)
More flights by this aircraft type
Origin: KBOI Boise Air Terminal/Gowen
United States
Destination: KLAS McCarran Intl
United States
More flights between these airports :: More routes between these airports
Route: BOI3 BOI ROARR LYONS CRITO WINEN MPIRE KSINO SITEE4
File this flight plan on PilotEdge
Remarks:
Altitude:
(Current/Filed)
39,000ft
Speed:
(Current/Filed)
285kts
Departed: 16-May-20 09:01 AM
Arrived: 16-May-20 10:37 AM
Distance/Time
Traveled:
452nm/1:36
Distance/Time
To Go:
Arrived

Flight Plot

Page will automatically refresh every two minutes.


Map Options




Map Legend


Flown Route
Filed Route
Departure Airport
Arrival Airport
Navaid (VOR, NDB)
Fix

Horizontal Profiles

Position Reports

Time Latitude Longitude Heading Altitude Ground
Speed
16-May-20 08:43 43.562236 -116.206275 270 2866ft 0kts
16-May-20 08:44 43.562236 -116.206275 270 2866ft 0kts
16-May-20 08:45 43.562236 -116.206275 270 2866ft 0kts
16-May-20 08:46 43.562236 -116.206275 270 2866ft 0kts
16-May-20 08:47 43.562236 -116.206275 270 2866ft 0kts
16-May-20 08:48 43.562236 -116.206275 270 2866ft 0kts
16-May-20 08:49 43.562236 -116.206275 270 2866ft 0kts
16-May-20 08:49 43.562236 -116.206275 270 2866ft 0kts
16-May-20 08:51 43.562236 -116.206275 270 2866ft 0kts
16-May-20 08:52 43.562223 -116.206299 220 2866ft 0kts
16-May-20 08:52 43.562095 -116.206249 159 2866ft 0kts
16-May-20 08:54 43.562095 -116.206249 159 2866ft 0kts
16-May-20 08:55 43.562094 -116.206248 159 2866ft 0kts
16-May-20 08:55 43.562041 -116.209487 295 2860ft 27kts
16-May-20 08:56 43.565190 -116.218680 295 2852ft 34kts
16-May-20 08:58 43.566462 -116.221804 297 2849ft 0kts
16-May-20 08:58 43.566485 -116.221865 297 2849ft 0kts
16-May-20 08:59 43.566513 -116.221938 297 2848ft 0kts
16-May-20 09:00 43.569502 -116.231337 294 2834ft 41kts
16-May-20 09:01 43.570925 -116.236188 234 2825ft 0kts
16-May-20 09:02 43.570925 -116.236188 234 2825ft 0kts
16-May-20 09:03 43.570925 -116.236188 234 2825ft 0kts
16-May-20 09:04 43.569746 -116.235514 115 2828ft 38kts
16-May-20 09:05 43.553200 -116.189198 118 4123ft 195kts
16-May-20 09:06 43.528523 -116.119670 116 7901ft 210kts
16-May-20 09:07 43.504493 -116.047806 117 11614ft 209kts
16-May-20 09:08 43.479379 -115.973325 119 14788ft 220kts
16-May-20 09:09 43.450300 -115.886966 116 16026ft 300kts
16-May-20 09:10 43.414248 -115.768924 115 16020ft 357kts
16-May-20 09:11 43.378543 -115.650319 116 18585ft 319kts
16-May-20 09:12 43.345011 -115.540438 118 21145ft 308kts
16-May-20 09:13 43.311517 -115.431654 118 23035ft 324kts
16-May-20 09:14 43.257670 -115.324667 142 23023ft 361kts
16-May-20 09:15 43.182158 -115.226562 141 23017ft 381kts
16-May-20 09:16 43.108892 -115.130904 143 24955ft 351kts
16-May-20 09:17 43.038761 -115.040260 143 26660ft 346kts
16-May-20 09:18 42.967759 -114.949492 142 27951ft 359kts
16-May-20 09:19 42.893423 -114.854480 140 29175ft 373kts
16-May-20 09:20 42.816697 -114.755746 140 30405ft 383kts
16-May-20 09:21 42.726238 -114.700896 185 31592ft 359kts
16-May-20 09:22 42.626240 -114.696200 187 32851ft 360kts
16-May-20 09:23 42.526158 -114.691923 187 34075ft 361kts
16-May-20 09:24 42.425123 -114.687510 187 35272ft 362kts
16-May-20 09:25 42.322478 -114.682849 187 36437ft 364kts
16-May-20 09:26 42.221342 -114.678219 187 37526ft 364kts
16-May-20 09:27 42.119679 -114.673547 187 38552ft 365kts
16-May-20 09:28 42.016636 -114.668915 187 39193ft 376kts
16-May-20 09:29 41.908994 -114.664172 186 39195ft 399kts
16-May-20 09:30 41.795042 -114.658936 186 39188ft 413kts
16-May-20 09:31 41.678237 -114.653633 186 39188ft 422kts
16-May-20 09:32 41.560482 -114.648258 186 39188ft 426kts
16-May-20 09:33 41.441522 -114.642866 186 39195ft 428kts
16-May-20 09:34 41.322255 -114.637545 186 39196ft 429kts
16-May-20 09:35 41.201245 -114.632160 185 39197ft 430kts
16-May-20 09:36 41.081826 -114.626931 185 39198ft 430kts
16-May-20 09:37 40.962617 -114.621957 184 39190ft 429kts
16-May-20 09:38 40.844589 -114.616520 184 39182ft 426kts
16-May-20 09:39 40.726484 -114.611246 184 39186ft 425kts
16-May-20 09:40 40.608786 -114.606073 184 39186ft 425kts
16-May-20 09:41 40.490817 -114.600905 184 39185ft 425kts
16-May-20 09:42 40.372737 -114.595769 184 39187ft 425kts
16-May-20 09:43 40.254715 -114.590703 184 39190ft 425kts
16-May-20 09:44 40.136503 -114.585552 184 39196ft 425kts
16-May-20 09:45 40.018143 -114.580457 184 39202ft 425kts
16-May-20 09:46 39.900298 -114.575456 184 39207ft 426kts
16-May-20 09:47 39.782106 -114.570402 184 39206ft 425kts
16-May-20 09:48 39.664208 -114.565377 184 39204ft 425kts
16-May-20 09:49 39.545929 -114.560377 184 39201ft 425kts
16-May-20 09:50 39.427761 -114.555375 184 39205ft 426kts
16-May-20 09:51 39.309314 -114.549771 178 39190ft 431kts
16-May-20 09:52 39.201204 -114.473097 152 39208ft 449kts
16-May-20 09:53 39.094428 -114.389112 153 39207ft 449kts
16-May-20 09:54 38.987523 -114.305758 153 39200ft 449kts
16-May-20 09:55 38.885621 -114.226784 153 39198ft 451kts
16-May-20 09:56 38.776935 -114.142598 153 39198ft 452kts
16-May-20 09:57 38.669502 -114.059741 153 39194ft 453kts
16-May-20 09:58 38.561541 -113.976802 153 39168ft 454kts
16-May-20 09:59 38.453498 -113.894103 153 39166ft 454kts
16-May-20 10:00 38.344254 -113.810769 153 39167ft 454kts
16-May-20 10:01 38.235798 -113.728347 153 39168ft 454kts
16-May-20 10:02 38.127825 -113.646587 153 39169ft 454kts
16-May-20 10:03 38.018507 -113.564095 153 38671ft 465kts
16-May-20 10:04 37.901189 -113.500819 184 36156ft 449kts
16-May-20 10:05 37.775140 -113.502481 187 33793ft 450kts
16-May-20 10:06 37.650815 -113.505034 186 31532ft 447kts
16-May-20 10:07 37.532292 -113.516341 211 27839ft 399kts
16-May-20 10:08 37.436058 -113.575452 209 24937ft 378kts
16-May-20 10:09 37.339692 -113.633281 208 22430ft 380kts
16-May-20 10:10 37.245053 -113.689692 208 20386ft 371kts
16-May-20 10:11 37.151902 -113.745124 207 18378ft 365kts
16-May-20 10:12 37.061877 -113.798810 206 16417ft 355kts
16-May-20 10:13 36.974107 -113.850844 205 16061ft 345kts
16-May-20 10:14 36.887552 -113.901626 204 16064ft 342kts
16-May-20 10:15 36.800638 -113.952661 204 16064ft 342kts
16-May-20 10:16 36.714680 -114.003139 205 16073ft 341kts
16-May-20 10:17 36.628930 -114.053402 205 16073ft 341kts
16-May-20 10:18 36.555654 -114.123661 236 15243ft 342kts
16-May-20 10:19 36.505919 -114.221102 236 14162ft 330kts
16-May-20 10:20 36.458251 -114.314028 237 13089ft 310kts
16-May-20 10:21 36.412437 -114.403131 237 12027ft 301kts
16-May-20 10:22 36.367902 -114.489785 237 11682ft 299kts
16-May-20 10:23 36.324952 -114.573264 237 10361ft 273kts
16-May-20 10:24 36.285189 -114.650335 236 9693ft 252kts
16-May-20 10:25 36.249073 -114.720327 237 8297ft 235kts
16-May-20 10:26 36.216420 -114.783524 237 7949ft 198kts
16-May-20 10:27 36.184008 -114.846365 237 6759ft 220kts
16-May-20 10:28 36.150702 -114.911780 237 5272ft 230kts
16-May-20 10:30 36.122922 -114.966762 237 5017ft 145kts
16-May-20 10:31 36.104169 -115.006779 245 4915ft 124kts
16-May-20 10:32 36.095461 -115.046652 288 4010ft 122kts
16-May-20 10:33 36.111127 -115.083076 307 3622ft 120kts
16-May-20 10:34 36.127356 -115.117065 279 3392ft 123kts
16-May-20 10:35 36.111832 -115.149494 206 2534ft 123kts
16-May-20 10:36 36.086196 -115.164197 206 2139ft 48kts
16-May-20 10:37 36.084074 -115.166158 228 2150ft 1kts
16-May-20 10:38 36.083871 -115.166442 228 2152ft 0kts
16-May-20 10:39 36.081160 -115.169836 208 2167ft 14kts

Navigation Log

Ident Type
Flight plan parsing failed, navigation log unavailable